sensor_id;sensor_type;location;lat;lon;timestamp;P1;durP1;ratioP1;P2;durP2;ratioP2
79592;SDS011;69074;45.164;9.704;2023-05-29T00:02:06;31.6;;;24.1;;
79592;SDS011;69074;45.164;9.704;2023-05-29T00:04:31;31.6;;;24.1;;
79592;SDS011;69074;45.164;9.704;2023-05-29T00:06:56;34.2;;;25.5;;
79592;SDS011;69074;45.164;9.704;2023-05-29T00:09:21;34.2;;;25.5;;
79592;SDS011;69074;45.164;9.704;2023-05-29T00:11:46;34.2;;;25.5;;
79592;SDS011;69074;45.164;9.704;2023-05-29T00:14:11;34.2;;;25.5;;
79592;SDS011;69074;45.164;9.704;2023-05-29T00:16:36;34.2;;;25.5;;
79592;SDS011;69074;45.164;9.704;2023-05-29T00:19:01;34.2;;;25.5;;
79592;SDS011;69074;45.164;9.704;2023-05-29T00:21:26;30.7;;;24.4;;
79592;SDS011;69074;45.164;9.704;2023-05-29T00:23:51;30.7;;;24.4;;
79592;SDS011;69074;45.164;9.704;2023-05-29T00:26:16;30.7;;;24.4;;
79592;SDS011;69074;45.164;9.704;2023-05-29T00:28:41;30.7;;;24.4;;
79592;SDS011;69074;45.164;9.704;2023-05-29T00:31:06;30.7;;;24.4;;
79592;SDS011;69074;45.164;9.704;2023-05-29T00:33:31;30.7;;;24.4;;
79592;SDS011;69074;45.164;9.704;2023-05-29T00:35:56;30.5;;;24.7;;
79592;SDS011;69074;45.164;9.704;2023-05-29T00:38:21;30.5;;;24.7;;
79592;SDS011;69074;45.164;9.704;2023-05-29T00:40:46;30.5;;;24.7;;
79592;SDS011;69074;45.164;9.704;2023-05-29T00:43:11;30.5;;;24.7;;
79592;SDS011;69074;45.164;9.704;2023-05-29T00:45:36;30.5;;;24.7;;
79592;SDS011;69074;45.164;9.704;2023-05-29T00:48:01;30.5;;;24.7;;
79592;SDS011;69074;45.164;9.704;2023-05-29T00:50:26;28.4;;;23.5;;
79592;SDS011;69074;45.164;9.704;2023-05-29T00:52:51;28.4;;;23.5;;
79592;SDS011;69074;45.164;9.704;2023-05-29T00:55:16;28.4;;;23.5;;
79592;SDS011;69074;45.164;9.704;2023-05-29T00:57:41;28.4;;;23.5;;
79592;SDS011;69074;45.164;9.704;2023-05-29T01:00:07;28.4;;;23.5;;
79592;SDS011;69074;45.164;9.704;2023-05-29T01:02:31;28.4;;;23.5;;
79592;SDS011;69074;45.164;9.704;2023-05-29T01:04:57;31.9;;;25.7;;
79592;SDS011;69074;45.164;9.704;2023-05-29T01:07:21;31.9;;;25.7;;
79592;SDS011;69074;45.164;9.704;2023-05-29T01:09:46;31.9;;;25.7;;
79592;SDS011;69074;45.164;9.704;2023-05-29T01:12:15;31.9;;;25.7;;
79592;SDS011;69074;45.164;9.704;2023-05-29T01:14:39;31.9;;;25.7;;
79592;SDS011;69074;45.164;9.704;2023-05-29T01:17:04;31.9;;;25.7;;
79592;SDS011;69074;45.164;9.704;2023-05-29T01:19:28;31.9;;;25.7;;
79592;SDS011;69074;45.164;9.704;2023-05-29T01:21:55;32.6;;;27.3;;
79592;SDS011;69074;45.164;9.704;2023-05-29T01:24:18;32.6;;;27.3;;
79592;SDS011;69074;45.164;9.704;2023-05-29T01:26:45;32.6;;;27.3;;
79592;SDS011;69074;45.164;9.704;2023-05-29T01:29:07;32.6;;;27.3;;
79592;SDS011;69074;45.164;9.704;2023-05-29T01:31:31;32.6;;;27.3;;
79592;SDS011;69074;45.164;9.704;2023-05-29T01:33:57;32.6;;;27.3;;
79592;SDS011;69074;45.164;9.704;2023-05-29T01:36:22;32.9;;;27.8;;
79592;SDS011;69074;45.164;9.704;2023-05-29T01:38:46;32.9;;;27.8;;
79592;SDS011;69074;45.164;9.704;2023-05-29T01:41:11;32.9;;;27.8;;
79592;SDS011;69074;45.164;9.704;2023-05-29T01:43:36;32.9;;;27.8;;
79592;SDS011;69074;45.164;9.704;2023-05-29T01:46:01;32.9;;;27.8;;
79592;SDS011;69074;45.164;9.704;2023-05-29T01:48:26;32.9;;;27.8;;
79592;SDS011;69074;45.164;9.704;2023-05-29T01:50:51;33.2;;;26.3;;
79592;SDS011;69074;45.164;9.704;2023-05-29T01:53:16;33.2;;;26.3;;
79592;SDS011;69074;45.164;9.704;2023-05-29T01:55:41;33.2;;;26.3;;
79592;SDS011;69074;45.164;9.704;2023-05-29T01:58:06;33.2;;;26.3;;
79592;SDS011;69074;45.164;9.704;2023-05-29T02:00:31;33.2;;;26.3;;
79592;SDS011;69074;45.164;9.704;2023-05-29T02:02:56;33.2;;;26.3;;
79592;SDS011;69074;45.164;9.704;2023-05-29T02:05:22;36.4;;;27.2;;
79592;SDS011;69074;45.164;9.704;2023-05-29T02:07:46;36.4;;;27.2;;
79592;SDS011;69074;45.164;9.704;2023-05-29T02:10:11;36.4;;;27.2;;
79592;SDS011;69074;45.164;9.704;2023-05-29T02:12:36;36.4;;;27.2;;
79592;SDS011;69074;45.164;9.704;2023-05-29T02:15:01;36.4;;;27.2;;
79592;SDS011;69074;45.164;9.704;2023-05-29T02:17:26;36.4;;;27.2;;
79592;SDS011;69074;45.164;9.704;2023-05-29T02:19:51;34.1;;;27.9;;
79592;SDS011;69074;45.164;9.704;2023-05-29T02:22:17;34.1;;;27.9;;
79592;SDS011;69074;45.164;9.704;2023-05-29T02:24:41;34.1;;;27.9;;
79592;SDS011;69074;45.164;9.704;2023-05-29T02:27:06;34.1;;;27.9;;
79592;SDS011;69074;45.164;9.704;2023-05-29T02:29:31;34.1;;;27.9;;
79592;SDS011;69074;45.164;9.704;2023-05-29T02:31:56;34.1;;;27.9;;
79592;SDS011;69074;45.164;9.704;2023-05-29T02:34:21;34.1;;;27.9;;
79592;SDS011;69074;45.164;9.704;2023-05-29T02:36:46;30.9;;;27.5;;
79592;SDS011;69074;45.164;9.704;2023-05-29T02:39:11;30.9;;;27.5;;
79592;SDS011;69074;45.164;9.704;2023-05-29T02:41:36;30.9;;;27.5;;
79592;SDS011;69074;45.164;9.704;2023-05-29T02:44:02;30.9;;;27.5;;
79592;SDS011;69074;45.164;9.704;2023-05-29T02:46:26;30.9;;;27.5;;
79592;SDS011;69074;45.164;9.704;2023-05-29T02:48:51;30.9;;;27.5;;
79592;SDS011;69074;45.164;9.704;2023-05-29T02:51:16;35.3;;;27.7;;
79592;SDS011;69074;45.164;9.704;2023-05-29T02:53:41;35.3;;;27.7;;
79592;SDS011;69074;45.164;9.704;2023-05-29T02:56:07;35.3;;;27.7;;
79592;SDS011;69074;45.164;9.704;2023-05-29T02:58:31;35.3;;;27.7;;
79592;SDS011;69074;45.164;9.704;2023-05-29T03:00:56;35.3;;;27.7;;
79592;SDS011;69074;45.164;9.704;2023-05-29T03:03:21;35.3;;;27.7;;
79592;SDS011;69074;45.164;9.704;2023-05-29T03:05:46;35.7;;;27.6;;
79592;SDS011;69074;45.164;9.704;2023-05-29T03:08:11;35.7;;;27.6;;
79592;SDS011;69074;45.164;9.704;2023-05-29T03:10:36;35.7;;;27.6;;
79592;SDS011;69074;45.164;9.704;2023-05-29T03:13:01;35.7;;;27.6;;
79592;SDS011;69074;45.164;9.704;2023-05-29T03:15:26;35.7;;;27.6;;
79592;SDS011;69074;45.164;9.704;2023-05-29T03:17:51;35.7;;;27.6;;
79592;SDS011;69074;45.164;9.704;2023-05-29T03:20:16;33.7;;;27.0;;
79592;SDS011;69074;45.164;9.704;2023-05-29T03:22:41;33.7;;;27.0;;
79592;SDS011;69074;45.164;9.704;2023-05-29T03:25:07;33.7;;;27.0;;
79592;SDS011;69074;45.164;9.704;2023-05-29T03:27:31;33.7;;;27.0;;
79592;SDS011;69074;45.164;9.704;2023-05-29T03:29:57;33.7;;;27.0;;
79592;SDS011;69074;45.164;9.704;2023-05-29T03:32:21;33.7;;;27.0;;
79592;SDS011;69074;45.164;9.704;2023-05-29T03:34:46;35.1;;;27.5;;
79592;SDS011;69074;45.164;9.704;2023-05-29T03:37:11;35.1;;;27.5;;
79592;SDS011;69074;45.164;9.704;2023-05-29T03:39:36;35.1;;;27.5;;
79592;SDS011;69074;45.164;9.704;2023-05-29T03:42:01;35.1;;;27.5;;
79592;SDS011;69074;45.164;9.704;2023-05-29T03:44:26;35.1;;;27.5;;
79592;SDS011;69074;45.164;9.704;2023-05-29T03:46:51;35.1;;;27.5;;
79592;SDS011;69074;45.164;9.704;2023-05-29T03:49:16;35.1;;;27.5;;
79592;SDS011;69074;45.164;9.704;2023-05-29T03:51:41;37.6;;;28.7;;
79592;SDS011;69074;45.164;9.704;2023-05-29T03:54:06;37.6;;;28.7;;
79592;SDS011;69074;45.164;9.704;2023-05-29T03:56:31;37.6;;;28.7;;
79592;SDS011;69074;45.164;9.704;2023-05-29T03:58:56;37.6;;;28.7;;
79592;SDS011;69074;45.164;9.704;2023-05-29T04:01:21;37.6;;;28.7;;
79592;SDS011;69074;45.164;9.704;2023-05-29T04:03:46;37.6;;;28.7;;
79592;SDS011;69074;45.164;9.704;2023-05-29T04:06:11;38.1;;;31.0;;
79592;SDS011;69074;45.164;9.704;2023-05-29T04:08:36;38.1;;;31.0;;
79592;SDS011;69074;45.164;9.704;2023-05-29T04:11:01;38.1;;;31.0;;
79592;SDS011;69074;45.164;9.704;2023-05-29T04:13:26;38.1;;;31.0;;
79592;SDS011;69074;45.164;9.704;2023-05-29T04:15:51;38.1;;;31.0;;
79592;SDS011;69074;45.164;9.704;2023-05-29T04:18:16;38.1;;;31.0;;
79592;SDS011;69074;45.164;9.704;2023-05-29T04:20:41;37.6;;;30.8;;
79592;SDS011;69074;45.164;9.704;2023-05-29T04:23:06;37.6;;;30.8;;
79592;SDS011;69074;45.164;9.704;2023-05-29T04:25:31;37.6;;;30.8;;
79592;SDS011;69074;45.164;9.704;2023-05-29T04:27:56;37.6;;;30.8;;
79592;SDS011;69074;45.164;9.704;2023-05-29T04:30:22;37.6;;;30.8;;
79592;SDS011;69074;45.164;9.704;2023-05-29T04:32:46;37.6;;;30.8;;
79592;SDS011;69074;45.164;9.704;2023-05-29T04:35:11;34.6;;;29.1;;
79592;SDS011;69074;45.164;9.704;2023-05-29T04:37:36;34.6;;;29.1;;
79592;SDS011;69074;45.164;9.704;2023-05-29T04:40:01;34.6;;;29.1;;
79592;SDS011;69074;45.164;9.704;2023-05-29T04:42:26;34.6;;;29.1;;
79592;SDS011;69074;45.164;9.704;2023-05-29T04:44:51;34.6;;;29.1;;
79592;SDS011;69074;45.164;9.704;2023-05-29T04:47:16;34.6;;;29.1;;
79592;SDS011;69074;45.164;9.704;2023-05-29T04:49:41;39.3;;;30.2;;
79592;SDS011;69074;45.164;9.704;2023-05-29T04:52:06;39.3;;;30.2;;
79592;SDS011;69074;45.164;9.704;2023-05-29T04:54:31;39.3;;;30.2;;
79592;SDS011;69074;45.164;9.704;2023-05-29T04:56:56;39.3;;;30.2;;
79592;SDS011;69074;45.164;9.704;2023-05-29T04:59:21;39.3;;;30.2;;
79592;SDS011;69074;45.164;9.704;2023-05-29T05:01:46;39.3;;;30.2;;
79592;SDS011;69074;45.164;9.704;2023-05-29T05:04:11;39.3;;;30.2;;
79592;SDS011;69074;45.164;9.704;2023-05-29T05:06:36;38.6;;;27.4;;
79592;SDS011;69074;45.164;9.704;2023-05-29T05:09:01;38.6;;;27.4;;
79592;SDS011;69074;45.164;9.704;2023-05-29T05:11:26;38.6;;;27.4;;
79592;SDS011;69074;45.164;9.704;2023-05-29T05:13:51;38.6;;;27.4;;
79592;SDS011;69074;45.164;9.704;2023-05-29T05:16:16;38.6;;;27.4;;
79592;SDS011;69074;45.164;9.704;2023-05-29T05:18:41;38.6;;;27.4;;
79592;SDS011;69074;45.164;9.704;2023-05-29T05:21:06;44.6;;;36.6;;
79592;SDS011;69074;45.164;9.704;2023-05-29T05:23:31;44.6;;;36.6;;
79592;SDS011;69074;45.164;9.704;2023-05-29T05:25:56;44.6;;;36.6;;
79592;SDS011;69074;45.164;9.704;2023-05-29T05:28:21;44.6;;;36.6;;
79592;SDS011;69074;45.164;9.704;2023-05-29T05:30:46;44.6;;;36.6;;
79592;SDS011;69074;45.164;9.704;2023-05-29T05:33:11;44.6;;;36.6;;
79592;SDS011;69074;45.164;9.704;2023-05-29T05:35:36;26.6;;;20.3;;
79592;SDS011;69074;45.164;9.704;2023-05-29T05:38:01;26.6;;;20.3;;
79592;SDS011;69074;45.164;9.704;2023-05-29T05:40:26;26.6;;;20.3;;
79592;SDS011;69074;45.164;9.704;2023-05-29T05:42:51;26.6;;;20.3;;
79592;SDS011;69074;45.164;9.704;2023-05-29T05:45:16;26.6;;;20.3;;
79592;SDS011;69074;45.164;9.704;2023-05-29T05:47:41;26.6;;;20.3;;
79592;SDS011;69074;45.164;9.704;2023-05-29T05:50:06;17.3;;;12.5;;
79592;SDS011;69074;45.164;9.704;2023-05-29T05:52:31;17.3;;;12.5;;
79592;SDS011;69074;45.164;9.704;2023-05-29T05:54:56;17.3;;;12.5;;
79592;SDS011;69074;45.164;9.704;2023-05-29T05:57:21;17.3;;;12.5;;
79592;SDS011;69074;45.164;9.704;2023-05-29T05:59:46;17.3;;;12.5;;
79592;SDS011;69074;45.164;9.704;2023-05-29T06:02:11;17.3;;;12.5;;
79592;SDS011;69074;45.164;9.704;2023-05-29T06:04:36;17.3;;;12.5;;
79592;SDS011;69074;45.164;9.704;2023-05-29T06:07:01;14.9;;;11.2;;
79592;SDS011;69074;45.164;9.704;2023-05-29T06:09:26;14.9;;;11.2;;
79592;SDS011;69074;45.164;9.704;2023-05-29T06:11:51;14.9;;;11.2;;
79592;SDS011;69074;45.164;9.704;2023-05-29T06:14:16;14.9;;;11.2;;
79592;SDS011;69074;45.164;9.704;2023-05-29T06:16:41;14.9;;;11.2;;
79592;SDS011;69074;45.164;9.704;2023-05-29T06:19:06;14.9;;;11.2;;
79592;SDS011;69074;45.164;9.704;2023-05-29T06:21:32;17.3;;;11.4;;
79592;SDS011;69074;45.164;9.704;2023-05-29T06:23:56;17.3;;;11.4;;
79592;SDS011;69074;45.164;9.704;2023-05-29T06:26:22;17.3;;;11.4;;
79592;SDS011;69074;45.164;9.704;2023-05-29T06:28:46;17.3;;;11.4;;
79592;SDS011;69074;45.164;9.704;2023-05-29T06:31:11;17.3;;;11.4;;
79592;SDS011;69074;45.164;9.704;2023-05-29T06:33:36;17.3;;;11.4;;
79592;SDS011;69074;45.164;9.704;2023-05-29T06:36:01;16.8;;;12.3;;
79592;SDS011;69074;45.164;9.704;2023-05-29T06:38:26;16.8;;;12.3;;
79592;SDS011;69074;45.164;9.704;2023-05-29T06:40:51;16.8;;;12.3;;
79592;SDS011;69074;45.164;9.704;2023-05-29T06:43:16;16.8;;;12.3;;
79592;SDS011;69074;45.164;9.704;2023-05-29T06:45:41;16.8;;;12.3;;
79592;SDS011;69074;45.164;9.704;2023-05-29T06:48:06;16.8;;;12.3;;
79592;SDS011;69074;45.164;9.704;2023-05-29T06:50:31;18.2;;;11.4;;
79592;SDS011;69074;45.164;9.704;2023-05-29T06:52:56;18.2;;;11.4;;
79592;SDS011;69074;45.164;9.704;2023-05-29T06:55:21;18.2;;;11.4;;
79592;SDS011;69074;45.164;9.704;2023-05-29T06:57:46;18.2;;;11.4;;
79592;SDS011;69074;45.164;9.704;2023-05-29T07:00:12;18.2;;;11.4;;
79592;SDS011;69074;45.164;9.704;2023-05-29T07:02:36;18.2;;;11.4;;
79592;SDS011;69074;45.164;9.704;2023-05-29T07:05:01;15.4;;;12.2;;
79592;SDS011;69074;45.164;9.704;2023-05-29T07:07:26;15.4;;;12.2;;
79592;SDS011;69074;45.164;9.704;2023-05-29T07:09:51;15.4;;;12.2;;
79592;SDS011;69074;45.164;9.704;2023-05-29T07:12:16;15.4;;;12.2;;
79592;SDS011;69074;45.164;9.704;2023-05-29T07:14:41;15.4;;;12.2;;
79592;SDS011;69074;45.164;9.704;2023-05-29T07:17:06;15.4;;;12.2;;
79592;SDS011;69074;45.164;9.704;2023-05-29T07:19:31;15.4;;;12.2;;
79592;SDS011;69074;45.164;9.704;2023-05-29T07:21:56;19.4;;;12.4;;
79592;SDS011;69074;45.164;9.704;2023-05-29T07:24:21;19.4;;;12.4;;
79592;SDS011;69074;45.164;9.704;2023-05-29T07:26:46;19.4;;;12.4;;
79592;SDS011;69074;45.164;9.704;2023-05-29T07:29:11;19.4;;;12.4;;
79592;SDS011;69074;45.164;9.704;2023-05-29T07:31:36;19.4;;;12.4;;
79592;SDS011;69074;45.164;9.704;2023-05-29T07:34:01;19.4;;;12.4;;
79592;SDS011;69074;45.164;9.704;2023-05-29T07:36:28;16.1;;;12.9;;
79592;SDS011;69074;45.164;9.704;2023-05-29T07:38:51;16.1;;;12.9;;
79592;SDS011;69074;45.164;9.704;2023-05-29T07:41:16;16.1;;;12.9;;
79592;SDS011;69074;45.164;9.704;2023-05-29T07:43:41;16.1;;;12.9;;
79592;SDS011;69074;45.164;9.704;2023-05-29T07:46:06;16.1;;;12.9;;
79592;SDS011;69074;45.164;9.704;2023-05-29T07:48:31;16.1;;;12.9;;
79592;SDS011;69074;45.164;9.704;2023-05-29T07:50:56;63.3;;;36.0;;
79592;SDS011;69074;45.164;9.704;2023-05-29T07:53:21;63.3;;;36.0;;
79592;SDS011;69074;45.164;9.704;2023-05-29T07:55:46;63.3;;;36.0;;
79592;SDS011;69074;45.164;9.704;2023-05-29T07:58:11;63.3;;;36.0;;
79592;SDS011;69074;45.164;9.704;2023-05-29T08:00:36;63.3;;;36.0;;
79592;SDS011;69074;45.164;9.704;2023-05-29T08:03:01;63.3;;;36.0;;
79592;SDS011;69074;45.164;9.704;2023-05-29T08:05:26;33.2;;;22.4;;
79592;SDS011;69074;45.164;9.704;2023-05-29T08:07:51;33.2;;;22.4;;
79592;SDS011;69074;45.164;9.704;2023-05-29T08:10:16;33.2;;;22.4;;
79592;SDS011;69074;45.164;9.704;2023-05-29T08:12:41;33.2;;;22.4;;
79592;SDS011;69074;45.164;9.704;2023-05-29T08:15:07;33.2;;;22.4;;
79592;SDS011;69074;45.164;9.704;2023-05-29T08:17:32;33.2;;;22.4;;
79592;SDS011;69074;45.164;9.704;2023-05-29T08:19:56;32.9;;;25.1;;
79592;SDS011;69074;45.164;9.704;2023-05-29T08:22:27;32.9;;;25.1;;
79592;SDS011;69074;45.164;9.704;2023-05-29T08:24:46;32.9;;;25.1;;
79592;SDS011;69074;45.164;9.704;2023-05-29T08:27:11;32.9;;;25.1;;
79592;SDS011;69074;45.164;9.704;2023-05-29T08:29:36;32.9;;;25.1;;
79592;SDS011;69074;45.164;9.704;2023-05-29T08:32:01;32.9;;;25.1;;
79592;SDS011;69074;45.164;9.704;2023-05-29T08:34:26;32.9;;;25.1;;
79592;SDS011;69074;45.164;9.704;2023-05-29T08:36:51;20.8;;;15.8;;
79592;SDS011;69074;45.164;9.704;2023-05-29T08:39:16;20.8;;;15.8;;
79592;SDS011;69074;45.164;9.704;2023-05-29T08:41:44;20.8;;;15.8;;
79592;SDS011;69074;45.164;9.704;2023-05-29T08:44:06;20.8;;;15.8;;
79592;SDS011;69074;45.164;9.704;2023-05-29T08:46:31;20.8;;;15.8;;
79592;SDS011;69074;45.164;9.704;2023-05-29T08:48:57;20.8;;;15.8;;
79592;SDS011;69074;45.164;9.704;2023-05-29T08:51:21;20.2;;;14.9;;
79592;SDS011;69074;45.164;9.704;2023-05-29T08:53:47;20.2;;;14.9;;
79592;SDS011;69074;45.164;9.704;2023-05-29T08:56:11;20.2;;;14.9;;
79592;SDS011;69074;45.164;9.704;2023-05-29T08:58:36;20.2;;;14.9;;
79592;SDS011;69074;45.164;9.704;2023-05-29T09:01:01;20.2;;;14.9;;
79592;SDS011;69074;45.164;9.704;2023-05-29T09:03:26;20.2;;;14.9;;
79592;SDS011;69074;45.164;9.704;2023-05-29T09:05:51;27.9;;;22.9;;
79592;SDS011;69074;45.164;9.704;2023-05-29T09:08:16;27.9;;;22.9;;
79592;SDS011;69074;45.164;9.704;2023-05-29T09:10:42;27.9;;;22.9;;
79592;SDS011;69074;45.164;9.704;2023-05-29T09:13:07;27.9;;;22.9;;
79592;SDS011;69074;45.164;9.704;2023-05-29T09:15:31;27.9;;;22.9;;
79592;SDS011;69074;45.164;9.704;2023-05-29T09:17:57;27.9;;;22.9;;
79592;SDS011;69074;45.164;9.704;2023-05-29T09:20:22;23.2;;;18.5;;
79592;SDS011;69074;45.164;9.704;2023-05-29T09:22:52;23.2;;;18.5;;
79592;SDS011;69074;45.164;9.704;2023-05-29T09:25:11;23.2;;;18.5;;
79592;SDS011;69074;45.164;9.704;2023-05-29T09:27:38;23.2;;;18.5;;
79592;SDS011;69074;45.164;9.704;2023-05-29T09:30:01;23.2;;;18.5;;
79592;SDS011;69074;45.164;9.704;2023-05-29T09:32:26;23.2;;;18.5;;
79592;SDS011;69074;45.164;9.704;2023-05-29T09:34:52;18.0;;;14.7;;
79592;SDS011;69074;45.164;9.704;2023-05-29T09:37:16;18.0;;;14.7;;
79592;SDS011;69074;45.164;9.704;2023-05-29T09:39:44;18.0;;;14.7;;
79592;SDS011;69074;45.164;9.704;2023-05-29T09:42:06;18.0;;;14.7;;
79592;SDS011;69074;45.164;9.704;2023-05-29T09:44:31;18.0;;;14.7;;
79592;SDS011;69074;45.164;9.704;2023-05-29T09:46:57;18.0;;;14.7;;
79592;SDS011;69074;45.164;9.704;2023-05-29T09:49:22;18.0;;;14.7;;
79592;SDS011;69074;45.164;9.704;2023-05-29T09:51:46;17.9;;;15.2;;
79592;SDS011;69074;45.164;9.704;2023-05-29T09:54:13;17.9;;;15.2;;
79592;SDS011;69074;45.164;9.704;2023-05-29T09:56:36;17.9;;;15.2;;
79592;SDS011;69074;45.164;9.704;2023-05-29T09:59:01;17.9;;;15.2;;
79592;SDS011;69074;45.164;9.704;2023-05-29T10:01:26;17.9;;;15.2;;
79592;SDS011;69074;45.164;9.704;2023-05-29T10:03:51;17.9;;;15.2;;
79592;SDS011;69074;45.164;9.704;2023-05-29T10:06:18;21.3;;;17.3;;
79592;SDS011;69074;45.164;9.704;2023-05-29T10:08:46;21.3;;;17.3;;
79592;SDS011;69074;45.164;9.704;2023-05-29T10:11:06;21.3;;;17.3;;
79592;SDS011;69074;45.164;9.704;2023-05-29T10:13:33;21.3;;;17.3;;
79592;SDS011;69074;45.164;9.704;2023-05-29T10:15:57;21.3;;;17.3;;
79592;SDS011;69074;45.164;9.704;2023-05-29T10:18:23;21.3;;;17.3;;
79592;SDS011;69074;45.164;9.704;2023-05-29T10:20:47;25.7;;;20.3;;
79592;SDS011;69074;45.164;9.704;2023-05-29T10:23:11;25.7;;;20.3;;
79592;SDS011;69074;45.164;9.704;2023-05-29T10:25:36;25.7;;;20.3;;
79592;SDS011;69074;45.164;9.704;2023-05-29T10:28:01;25.7;;;20.3;;
79592;SDS011;69074;45.164;9.704;2023-05-29T10:30:28;25.7;;;20.3;;
79592;SDS011;69074;45.164;9.704;2023-05-29T10:32:56;25.7;;;20.3;;
79592;SDS011;69074;45.164;9.704;2023-05-29T10:35:17;20.2;;;17.0;;
79592;SDS011;69074;45.164;9.704;2023-05-29T10:37:42;20.2;;;17.0;;
79592;SDS011;69074;45.164;9.704;2023-05-29T10:40:07;20.2;;;17.0;;
79592;SDS011;69074;45.164;9.704;2023-05-29T10:42:40;20.2;;;17.0;;
79592;SDS011;69074;45.164;9.704;2023-05-29T10:44:57;20.2;;;17.0;;
79592;SDS011;69074;45.164;9.704;2023-05-29T10:47:23;20.2;;;17.0;;
79592;SDS011;69074;45.164;9.704;2023-05-29T10:49:50;16.3;;;14.4;;
79592;SDS011;69074;45.164;9.704;2023-05-29T10:52:11;16.3;;;14.4;;
79592;SDS011;69074;45.164;9.704;2023-05-29T10:54:41;16.3;;;14.4;;
79592;SDS011;69074;45.164;9.704;2023-05-29T10:57:01;16.3;;;14.4;;
79592;SDS011;69074;45.164;9.704;2023-05-29T10:59:26;16.3;;;14.4;;
79592;SDS011;69074;45.164;9.704;2023-05-29T11:01:51;16.3;;;14.4;;
79592;SDS011;69074;45.164;9.704;2023-05-29T11:04:32;16.3;;;14.4;;
79592;SDS011;69074;45.164;9.704;2023-05-29T11:06:41;17.5;;;14.9;;
79592;SDS011;69074;45.164;9.704;2023-05-29T11:09:07;17.5;;;14.9;;
79592;SDS011;69074;45.164;9.704;2023-05-29T11:11:31;17.5;;;14.9;;
79592;SDS011;69074;45.164;9.704;2023-05-29T11:13:57;17.5;;;14.9;;
79592;SDS011;69074;45.164;9.704;2023-05-29T11:16:35;17.5;;;14.9;;
79592;SDS011;69074;45.164;9.704;2023-05-29T11:18:47;17.5;;;14.9;;
79592;SDS011;69074;45.164;9.704;2023-05-29T11:21:15;23.0;;;18.6;;
79592;SDS011;69074;45.164;9.704;2023-05-29T11:23:36;23.0;;;18.6;;
79592;SDS011;69074;45.164;9.704;2023-05-29T11:26:01;23.0;;;18.6;;
79592;SDS011;69074;45.164;9.704;2023-05-29T11:28:27;23.0;;;18.6;;
79592;SDS011;69074;45.164;9.704;2023-05-29T11:30:51;23.0;;;18.6;;
79592;SDS011;69074;45.164;9.704;2023-05-29T11:33:22;23.0;;;18.6;;
79592;SDS011;69074;45.164;9.704;2023-05-29T11:35:41;20.2;;;15.9;;
79592;SDS011;69074;45.164;9.704;2023-05-29T11:38:06;20.2;;;15.9;;
79592;SDS011;69074;45.164;9.704;2023-05-29T11:40:35;20.2;;;15.9;;
79592;SDS011;69074;45.164;9.704;2023-05-29T11:42:56;20.2;;;15.9;;
79592;SDS011;69074;45.164;9.704;2023-05-29T11:45:21;20.2;;;15.9;;
79592;SDS011;69074;45.164;9.704;2023-05-29T11:47:50;20.2;;;15.9;;
79592;SDS011;69074;45.164;9.704;2023-05-29T11:50:17;16.6;;;14.4;;
79592;SDS011;69074;45.164;9.704;2023-05-29T11:52:44;16.6;;;14.4;;
79592;SDS011;69074;45.164;9.704;2023-05-29T11:55:05;16.6;;;14.4;;
79592;SDS011;69074;45.164;9.704;2023-05-29T11:57:26;16.6;;;14.4;;
79592;SDS011;69074;45.164;9.704;2023-05-29T11:59:51;16.6;;;14.4;;
79592;SDS011;69074;45.164;9.704;2023-05-29T12:02:16;16.6;;;14.4;;
79592;SDS011;69074;45.164;9.704;2023-05-29T12:04:41;16.6;;;14.4;;
79592;SDS011;69074;45.164;9.704;2023-05-29T12:07:16;18.1;;;13.5;;
79592;SDS011;69074;45.164;9.704;2023-05-29T12:09:32;18.1;;;13.5;;
79592;SDS011;69074;45.164;9.704;2023-05-29T12:12:01;18.1;;;13.5;;
79592;SDS011;69074;45.164;9.704;2023-05-29T12:14:21;18.1;;;13.5;;
79592;SDS011;69074;45.164;9.704;2023-05-29T12:16:46;18.1;;;13.5;;
79592;SDS011;69074;45.164;9.704;2023-05-29T12:19:11;18.1;;;13.5;;
79592;SDS011;69074;45.164;9.704;2023-05-29T12:21:36;17.8;;;13.6;;
79592;SDS011;69074;45.164;9.704;2023-05-29T12:24:02;17.8;;;13.6;;
79592;SDS011;69074;45.164;9.704;2023-05-29T12:26:27;17.8;;;13.6;;
79592;SDS011;69074;45.164;9.704;2023-05-29T12:28:51;17.8;;;13.6;;
79592;SDS011;69074;45.164;9.704;2023-05-29T12:31:25;17.8;;;13.6;;
79592;SDS011;69074;45.164;9.704;2023-05-29T12:33:42;17.8;;;13.6;;
79592;SDS011;69074;45.164;9.704;2023-05-29T12:36:07;18.7;;;13.6;;
79592;SDS011;69074;45.164;9.704;2023-05-29T12:38:31;18.7;;;13.6;;
79592;SDS011;69074;45.164;9.704;2023-05-29T12:40:56;18.7;;;13.6;;
79592;SDS011;69074;45.164;9.704;2023-05-29T12:43:22;18.7;;;13.6;;
79592;SDS011;69074;45.164;9.704;2023-05-29T12:45:46;18.7;;;13.6;;
79592;SDS011;69074;45.164;9.704;2023-05-29T12:48:12;18.7;;;13.6;;
79592;SDS011;69074;45.164;9.704;2023-05-29T12:50:37;18.7;;;14.5;;
79592;SDS011;69074;45.164;9.704;2023-05-29T12:53:02;18.7;;;14.5;;
79592;SDS011;69074;45.164;9.704;2023-05-29T12:55:27;18.7;;;14.5;;
79592;SDS011;69074;45.164;9.704;2023-05-29T12:57:51;18.7;;;14.5;;
79592;SDS011;69074;45.164;9.704;2023-05-29T13:00:17;18.7;;;14.5;;
79592;SDS011;69074;45.164;9.704;2023-05-29T13:02:41;18.7;;;14.5;;
79592;SDS011;69074;45.164;9.704;2023-05-29T13:05:07;13.1;;;10.5;;
79592;SDS011;69074;45.164;9.704;2023-05-29T13:07:31;13.1;;;10.5;;
79592;SDS011;69074;45.164;9.704;2023-05-29T13:09:57;13.1;;;10.5;;
79592;SDS011;69074;45.164;9.704;2023-05-29T13:12:21;13.1;;;10.5;;
79592;SDS011;69074;45.164;9.704;2023-05-29T13:14:46;13.1;;;10.5;;
79592;SDS011;69074;45.164;9.704;2023-05-29T13:17:12;13.1;;;10.5;;
79592;SDS011;69074;45.164;9.704;2023-05-29T13:19:36;13.1;;;10.5;;
79592;SDS011;69074;45.164;9.704;2023-05-29T13:22:01;23.0;;;17.7;;
79592;SDS011;69074;45.164;9.704;2023-05-29T13:24:26;23.0;;;17.7;;
79592;SDS011;69074;45.164;9.704;2023-05-29T13:26:51;23.0;;;17.7;;
79592;SDS011;69074;45.164;9.704;2023-05-29T13:29:16;23.0;;;17.7;;
79592;SDS011;69074;45.164;9.704;2023-05-29T13:31:41;23.0;;;17.7;;
79592;SDS011;69074;45.164;9.704;2023-05-29T13:34:07;23.0;;;17.7;;
79592;SDS011;69074;45.164;9.704;2023-05-29T13:36:31;16.7;;;13.5;;
79592;SDS011;69074;45.164;9.704;2023-05-29T13:38:56;16.7;;;13.5;;
79592;SDS011;69074;45.164;9.704;2023-05-29T13:41:21;16.7;;;13.5;;
79592;SDS011;69074;45.164;9.704;2023-05-29T13:43:47;16.7;;;13.5;;
79592;SDS011;69074;45.164;9.704;2023-05-29T13:46:12;16.7;;;13.5;;
79592;SDS011;69074;45.164;9.704;2023-05-29T13:48:36;16.7;;;13.5;;
79592;SDS011;69074;45.164;9.704;2023-05-29T13:51:02;17.2;;;12.9;;
79592;SDS011;69074;45.164;9.704;2023-05-29T13:53:26;17.2;;;12.9;;
79592;SDS011;69074;45.164;9.704;2023-05-29T13:55:52;17.2;;;12.9;;
79592;SDS011;69074;45.164;9.704;2023-05-29T13:58:17;17.2;;;12.9;;
79592;SDS011;69074;45.164;9.704;2023-05-29T14:00:41;17.2;;;12.9;;
79592;SDS011;69074;45.164;9.704;2023-05-29T14:03:07;17.2;;;12.9;;
79592;SDS011;69074;45.164;9.704;2023-05-29T14:05:32;17.3;;;14.3;;
79592;SDS011;69074;45.164;9.704;2023-05-29T14:07:57;17.3;;;14.3;;
79592;SDS011;69074;45.164;9.704;2023-05-29T14:10:22;17.3;;;14.3;;
79592;SDS011;69074;45.164;9.704;2023-05-29T14:12:47;17.3;;;14.3;;
79592;SDS011;69074;45.164;9.704;2023-05-29T14:15:11;17.3;;;14.3;;
79592;SDS011;69074;45.164;9.704;2023-05-29T14:17:36;17.3;;;14.3;;
79592;SDS011;69074;45.164;9.704;2023-05-29T14:20:02;16.5;;;13.5;;
79592;SDS011;69074;45.164;9.704;2023-05-29T14:22:27;16.5;;;13.5;;
79592;SDS011;69074;45.164;9.704;2023-05-29T14:24:52;16.5;;;13.5;;
79592;SDS011;69074;45.164;9.704;2023-05-29T14:27:17;16.5;;;13.5;;
79592;SDS011;69074;45.164;9.704;2023-05-29T14:29:41;16.5;;;13.5;;
79592;SDS011;69074;45.164;9.704;2023-05-29T14:32:07;16.5;;;13.5;;
79592;SDS011;69074;45.164;9.704;2023-05-29T14:34:32;16.5;;;13.5;;